Time;durP1;ratioP1;P1;durP2;ratioP2;P2;SDS_P1;SDS_P2;PMS_P1;PMS_P2;Temp;Humidity;BMP_temperature;BMP_pressure;BME280_temperature;BME280_humidity;BME280_pressure;Samples;Min_cycle;Max_cycle;Signal;HPM_P1;HPM_P2
2021/11/13 00:01:03;;;;;;;64.82;32.03;;;103.20;2227.20;;;;;;4964113;28;19907;-78
2021/11/13 00:03:29;;;;;;;;;;;103.20;2227.20;;;;;;4964510;28;20154;-79
2021/11/13 00:05:55;;;;;;;59.55;29.88;;;103.20;2227.20;;;;;;4963926;28;19946;-90
2021/11/13 00:08:20;;;;;;;;;;;103.20;2227.20;;;;;;4965965;28;20479;-90
2021/11/13 00:10:47;;;;;;;58.90;29.50;;;103.20;2227.20;;;;;;4947046;28;19970;-75
2021/11/13 00:13:13;;;;;;;65.13;31.10;;;103.30;2227.20;;;;;;4964383;28;20022;-89
2021/11/13 00:15:50;;;;;;;;;;;103.30;2227.20;;;;;;4966251;28;20031;-90
2021/11/13 00:18:16;;;;;;;64.38;31.02;;;128.10;2252.80;;;;;;4946055;28;19907;-90
2021/11/13 00:20:42;;;;;;;62.80;31.30;;;128.20;2252.80;;;;;;4947661;28;20046;-76
2021/11/13 00:23:08;;;;;;;;;;;128.30;2252.80;;;;;;4949546;28;20027;-77
2021/11/13 00:25:48;;;;;;;53.70;24.05;;;128.40;2252.80;;;;;;4966091;28;19913;-74
2021/11/13 00:28:18;;;;;;;64.35;32.40;;;128.40;2252.80;;;;;;4954623;28;20023;-84
2021/11/13 00:30:50;;;;;;;64.45;33.22;;;128.40;2252.80;;;;;;4955514;28;20018;-88
2021/11/13 00:33:16;;;;;;;63.13;34.40;;;128.40;2252.80;;;;;;4972451;28;20026;-82
2021/11/13 00:35:42;;;;;;;;;;;128.40;2252.80;;;;;;4941755;29;20040;-75
2021/11/13 00:38:07;;;;;;;65.85;29.15;;;128.50;2252.80;;;;;;4943012;29;19915;-75
2021/11/13 00:40:35;;;;;;;;;;;128.50;2252.80;;;;;;4947954;28;20057;-87
2021/11/13 00:43:01;;;;;;;;;;;128.50;2252.80;;;;;;4941931;29;19921;-74
2021/11/13 00:45:28;;;;;;;52.53;24.30;;;128.30;2252.80;;;;;;4947731;29;19981;-76
2021/11/13 00:47:54;;;;;;;61.80;30.70;;;128.30;2252.80;;;;;;4942375;29;20027;-75
2021/11/13 00:50:25;;;;;;;;;;;128.50;2252.80;;;;;;4972130;28;20074;-83
2021/11/13 00:52:55;;;;;;;64.60;32.13;;;128.60;2252.80;;;;;;4965658;28;19906;-75
2021/11/13 00:55:45;;;;;;;71.38;33.60;;;128.70;2252.80;;;;;;4955849;28;20051;-90
2021/11/13 00:58:10;;;;;;;63.17;33.38;;;128.80;2252.80;;;;;;4945294;29;20043;-90
2021/11/13 01:00:37;;;;;;;;;;;128.80;2252.80;;;;;;4955639;28;20046;-83
2021/11/13 01:03:03;;;;;;;72.28;32.88;;;128.90;2252.80;;;;;;4969982;28;19998;-77
2021/11/13 01:05:48;;;;;;;;;;;128.90;2252.80;;;;;;4958356;28;20066;-84
2021/11/13 01:08:15;;;;;;;68.30;32.83;;;128.90;2252.80;;;;;;4951852;28;20362;-87
2021/11/13 01:10:42;;;;;;;67.13;32.13;;;128.80;2252.80;;;;;;4971160;28;20051;-87
2021/11/13 01:13:08;;;;;;;;;;;128.80;2252.80;;;;;;4972617;28;20035;-84
2021/11/13 01:15:35;;;;;;;68.63;31.05;;;153.60;2252.80;;;;;;4963568;29;19925;-83
2021/11/13 01:18:02;;;;;;;74.30;35.00;;;128.80;2252.80;;;;;;4944781;29;20027;-90
2021/11/13 01:20:29;;;;;;;66.30;32.78;;;128.80;2252.80;;;;;;4966450;28;20042;-75
2021/11/13 01:22:56;;;;;;;69.10;33.03;;;154.00;2252.80;;;;;;4965911;28;20478;-78
2021/11/13 01:25:21;;;;;;;77.50;35.60;;;153.80;2252.80;;;;;;4976001;28;20576;-89
2021/11/13 01:27:47;;;;;;;;;;;153.80;2252.80;;;;;;4972850;28;20031;-90
2021/11/13 01:30:35;;;;;;;78.25;36.28;;;154.00;2252.80;;;;;;4971729;28;19914;-81
2021/11/13 01:33:11;;;;;;;81.00;39.00;;;153.80;2252.80;;;;;;4955602;28;20029;-79
2021/11/13 01:35:36;;;;;;;79.53;40.37;;;128.90;2252.80;;;;;;4968022;28;20035;-87
2021/11/13 01:38:02;;;;;;;;;;;128.90;2252.80;;;;;;4965743;28;20028;-79
2021/11/13 01:40:29;;;;;;;75.20;35.17;;;128.80;2252.80;;;;;;4960430;29;19907;-75
2021/11/13 01:42:57;;;;;;;81.50;35.08;;;128.70;2252.80;;;;;;4961808;29;20054;-85
2021/11/13 01:45:23;;;;;;;89.20;37.10;;;128.70;2252.80;;;;;;4943158;29;20086;-86
2021/11/13 01:47:49;;;;;;;;;;;128.80;2252.80;;;;;;4960109;29;20033;-73
2021/11/13 01:50:22;;;;;;;71.85;31.55;;;153.70;2252.80;;;;;;4959546;29;20001;-75
2021/11/13 01:52:49;;;;;;;77.07;35.30;;;128.90;2252.80;;;;;;4961807;29;20011;-79
2021/11/13 01:55:20;;;;;;;91.78;37.15;;;128.80;2252.80;;;;;;4956471;28;20483;-89
2021/11/13 01:57:48;;;;;;;80.93;34.30;;;128.80;2252.80;;;;;;4953895;28;20023;-89
2021/11/13 02:00:28;;;;;;;86.72;34.22;;;128.70;2252.80;;;;;;4967224;28;20020;-78
2021/11/13 02:02:54;;;;;;;79.88;34.55;;;128.70;2252.80;;;;;;4963911;28;20043;-82
2021/11/13 02:05:19;;;;;;;;;;;128.70;2252.80;;;;;;4968619;28;20023;-75
2021/11/13 02:07:45;;;;;;;77.40;34.58;;;128.80;2252.80;;;;;;4948561;28;20000;-89
2021/11/13 02:10:12;;;;;;;;;;;128.90;2252.80;;;;;;4965098;28;20034;-90
2021/11/13 02:12:39;;;;;;;81.22;32.40;;;153.70;2252.80;;;;;;4947330;28;20046;-83
2021/11/13 02:15:06;;;;;;;80.75;34.45;;;153.60;2252.80;;;;;;4967609;28;20034;-74
2021/11/13 02:17:32;;;;;;;80.45;33.00;;;128.80;2252.80;;;;;;4967503;28;20023;-75
2021/11/13 02:20:14;;;;;;;;;;;128.70;2252.80;;;;;;4957131;29;20027;-74
2021/11/13 02:22:39;;;;;;;105.75;36.85;;;128.90;2252.80;;;;;;4966207;28;19910;-86
2021/11/13 02:25:05;;;;;;;;;;;128.80;2252.80;;;;;;4968183;28;20394;-80
2021/11/13 02:27:31;;;;;;;107.57;39.30;;;128.80;2252.80;;;;;;4967288;28;19912;-75
2021/11/13 02:29:57;;;;;;;108.82;39.38;;;153.70;2252.80;;;;;;4966082;28;20663;-90
2021/11/13 02:32:23;;;;;;;;;;;153.90;2252.80;;;;;;4967530;28;20024;-83
2021/11/13 02:34:48;;;;;;;109.03;38.47;;;153.80;2252.80;;;;;;4966973;28;19914;-83
2021/11/13 02:37:14;;;;;;;;;;;153.90;2252.80;;;;;;4956614;29;20438;-76
2021/11/13 02:39:40;;;;;;;102.22;36.50;;;154.00;2252.80;;;;;;4966177;28;20382;-80
2021/11/13 02:42:05;;;;;;;;;;;153.90;2252.80;;;;;;4967661;28;20057;-77
2021/11/13 02:44:32;;;;;;;131.00;40.55;;;154.00;2252.80;;;;;;4956354;29;19906;-89
2021/11/13 02:46:59;;;;;;;125.38;43.72;;;154.00;2252.80;;;;;;4955877;29;20066;-88
2021/11/13 02:49:26;;;;;;;128.88;42.40;;;153.90;2252.80;;;;;;4938985;29;21083;-84
2021/11/13 02:51:52;;;;;;;120.78;43.03;;;153.90;2252.80;;;;;;4961777;28;20562;-87
2021/11/13 02:54:17;;;;;;;;;;;153.80;2252.80;;;;;;4956285;29;20072;-74
2021/11/13 02:56:44;;;;;;;126.97;41.05;;;153.70;2252.80;;;;;;4955831;29;20397;-74
2021/11/13 02:59:10;;;;;;;143.98;42.03;;;153.70;2252.80;;;;;;4955869;29;20479;-89
2021/11/13 03:01:35;;;;;;;;;;;153.70;2252.80;;;;;;4948393;28;20031;-82
2021/11/13 03:04:01;;;;;;;145.18;42.67;;;153.70;2252.80;;;;;;4967847;28;20331;-89
2021/11/13 03:06:26;;;;;;;;;;;153.70;2252.80;;;;;;4956279;29;20066;-81
2021/11/13 03:08:54;;;;;;;140.65;41.67;;;153.60;2252.80;;;;;;4965698;28;19934;-85
2021/11/13 03:11:20;;;;;;;175.18;45.30;;;153.60;2252.80;;;;;;4965559;28;20056;-89
2021/11/13 03:13:50;;;;;;;179.60;46.15;;;128.80;2252.80;;;;;;4950114;28;20035;-90
2021/11/13 03:16:17;;;;;;;155.10;46.40;;;128.90;2252.80;;;;;;4962517;28;20051;-81
2021/11/13 03:18:44;;;;;;;157.27;45.10;;;153.70;2252.80;;;;;;4964979;28;20015;-89
2021/11/13 03:21:10;;;;;;;162.70;46.17;;;153.60;2252.80;;;;;;4966809;28;20098;-88
2021/11/13 03:23:37;;;;;;;;;;;153.70;2252.80;;;;;;4948766;28;20223;-89
2021/11/13 03:26:13;;;;;;;159.88;43.65;;;153.80;2252.80;;;;;;4955662;29;19914;-76
2021/11/13 03:28:40;;;;;;;;;;;153.70;2252.80;;;;;;4966002;28;20026;-90
2021/11/13 03:31:07;;;;;;;147.80;42.70;;;153.70;2252.80;;;;;;4948610;28;20389;-76
2021/11/13 03:33:36;;;;;;;128.48;40.78;;;128.90;2252.80;;;;;;4966362;28;20077;-74
2021/11/13 03:36:05;;;;;;;144.75;42.22;;;128.90;2252.80;;;;;;4966720;28;20454;-88
2021/11/13 03:38:30;;;;;;;145.95;41.97;;;153.60;2252.80;;;;;;4949189;28;20035;-86
2021/11/13 03:40:56;;;;;;;;;;;128.80;2252.80;;;;;;4947763;28;20031;-89
2021/11/13 03:43:22;;;;;;;130.82;39.00;;;128.90;2252.80;;;;;;4967028;28;19916;-90
2021/11/13 03:45:48;;;;;;;;;;;128.90;2252.80;;;;;;4964312;28;20030;-88
2021/11/13 03:48:14;;;;;;;118.03;36.88;;;128.90;2252.80;;;;;;4965841;28;19913;-87
2021/11/13 03:50:39;;;;;;;;;;;128.80;2252.80;;;;;;4965398;28;20019;-88
2021/11/13 03:53:07;;;;;;;114.90;35.97;;;128.90;2252.80;;;;;;4964230;28;19906;-75
2021/11/13 03:55:34;;;;;;;123.47;37.10;;;128.90;2252.80;;;;;;4948891;28;20030;-84
2021/11/13 03:58:00;;;;;;;139.52;41.25;;;128.90;2252.80;;;;;;4938216;29;20102;-81
2021/11/13 04:00:28;;;;;;;121.53;38.30;;;128.80;2252.80;;;;;;4960520;28;20569;-89
2021/11/13 04:02:54;;;;;;;129.63;39.25;;;128.90;2252.80;;;;;;4937765;29;20031;-85
2021/11/13 04:05:21;;;;;;;122.07;37.83;;;153.60;2252.80;;;;;;4966088;28;20019;-78
2021/11/13 04:07:48;;;;;;;119.43;37.70;;;128.80;2252.80;;;;;;4955189;28;20499;-77
2021/11/13 04:10:15;;;;;;;115.60;37.95;;;128.80;2252.80;;;;;;4960689;28;20055;-76
2021/11/13 04:12:42;;;;;;;124.60;40.83;;;128.80;2252.80;;;;;;4955416;29;20050;-89
2021/11/13 04:15:09;;;;;;;141.45;40.53;;;128.80;2252.80;;;;;;4955153;29;20035;-89
2021/11/13 04:17:36;;;;;;;129.68;41.70;;;128.70;2252.80;;;;;;4965552;28;20038;-85
2021/11/13 04:20:01;;;;;;;;;;;128.70;2252.80;;;;;;4965330;28;20023;-90
2021/11/13 04:22:27;;;;;;;134.90;40.80;;;128.80;2252.80;;;;;;4949441;28;19906;-89
2021/11/13 04:24:53;;;;;;;;;;;128.70;2252.80;;;;;;4949368;28;20042;-82
2021/11/13 04:27:19;;;;;;;123.85;38.35;;;128.80;2252.80;;;;;;4967600;28;19906;-79
2021/11/13 04:29:45;;;;;;;;;;;128.80;2252.80;;;;;;4963759;28;20409;-76
2021/11/13 04:32:12;;;;;;;140.57;40.70;;;128.70;2252.80;;;;;;4967335;28;19913;-88
2021/11/13 04:37:27;;;;;;;129.68;41.20;;;128.60;2252.80;;;;;;4937448;29;20484;-88
2021/11/13 04:39:53;;;;;;;138.88;40.47;;;128.70;2252.80;;;;;;4937600;29;20115;-75
2021/11/13 04:42:20;;;;;;;;;;;128.70;2252.80;;;;;;4937769;29;20106;-85
2021/11/13 04:44:48;;;;;;;128.70;39.40;;;128.70;2252.80;;;;;;4921770;29;20387;-84
2021/11/13 04:47:14;;;;;;;140.13;39.20;;;128.70;2252.80;;;;;;4936967;29;20774;-85
2021/11/13 04:49:40;;;;;;;;;;;128.70;2252.80;;;;;;4937256;29;20164;-74
2021/11/13 04:52:07;;;;;;;127.53;39.83;;;128.60;2252.80;;;;;;4937479;29;20395;-75
2021/11/13 04:54:34;;;;;;;119.70;36.30;;;128.50;2252.80;;;;;;4921173;29;20050;-77
2021/11/13 04:57:00;;;;;;;130.90;40.22;;;128.40;2252.80;;;;;;4937514;29;20075;-77
2021/11/13 04:59:25;;;;;;;;;;;128.50;2252.80;;;;;;4937715;29;20039;-81
2021/11/13 05:01:51;;;;;;;125.22;38.47;;;128.40;2252.80;;;;;;4937519;29;19910;-86
2021/11/13 05:04:17;;;;;;;;;;;128.40;2252.80;;;;;;4908706;29;20024;-84
2021/11/13 05:06:43;;;;;;;124.32;35.47;;;128.40;2252.80;;;;;;4935725;29;19910;-82
2021/11/13 05:09:08;;;;;;;;;;;128.50;2252.80;;;;;;4937722;29;20095;-78
2021/11/13 05:11:34;;;;;;;112.18;35.85;;;128.60;2252.80;;;;;;4937381;29;19907;-87
2021/11/13 05:14:00;;;;;;;;;;;128.50;2252.80;;;;;;4946957;28;20097;-78
2021/11/13 05:16:26;;;;;;;115.20;36.40;;;128.50;2252.80;;;;;;4957999;28;19906;-87
2021/11/13 05:18:51;;;;;;;;;;;128.60;2252.80;;;;;;4958400;29;20032;-87
2021/11/13 05:21:17;;;;;;;122.57;36.90;;;128.60;2252.80;;;;;;4957943;28;19913;-84
2021/11/13 05:23:43;;;;;;;;;;;128.60;2252.80;;;;;;4959674;28;20503;-81
2021/11/13 05:26:09;;;;;;;154.27;42.05;;;128.60;2252.80;;;;;;4952064;28;19906;-75
2021/11/13 05:28:58;;;;;;;130.95;40.75;;;128.60;2252.80;;;;;;4966903;28;20024;-89
2021/11/13 05:31:24;;;;;;;136.35;37.92;;;128.70;1945.60;;;;;;4947952;28;20114;-87
2021/11/13 05:33:49;;;;;;;;;;;128.60;2252.80;;;;;;4967193;28;20113;-88
2021/11/13 05:36:15;;;;;;;150.55;38.45;;;128.60;2252.80;;;;;;4968093;28;19906;-87
2021/11/13 05:38:41;;;;;;;;;;;128.50;2252.80;;;;;;4957666;28;20026;-74
2021/11/13 05:41:07;;;;;;;135.85;39.03;;;128.60;2252.80;;;;;;4942964;28;19915;-88
2021/11/13 05:43:32;;;;;;;;;;;128.50;2252.80;;;;;;4945717;28;20046;-81
2021/11/13 05:45:59;;;;;;;135.10;38.08;;;128.50;2252.80;;;;;;4965894;28;19945;-75
2021/11/13 05:48:25;;;;;;;134.05;37.72;;;128.40;2252.80;;;;;;4967135;28;20074;-78
2021/11/13 05:50:50;;;;;;;;;;;128.50;2252.80;;;;;;4968007;28;20074;-79
2021/11/13 05:53:16;;;;;;;146.23;35.83;;;128.60;2252.80;;;;;;4946444;28;19908;-78
2021/11/13 05:55:42;;;;;;;;;;;128.40;2252.80;;;;;;4968979;28;20034;-87
2021/11/13 05:58:08;;;;;;;127.72;35.35;;;128.60;2252.80;;;;;;4965922;28;20286;-88
2021/11/13 06:00:34;;;;;;;;;;;128.40;2176.00;;;;;;4955866;28;20027;-88
2021/11/13 06:03:01;;;;;;;99.25;26.83;;;128.50;2252.80;;;;;;4945586;28;19906;-77
2021/11/13 06:05:27;;;;;;;148.90;39.08;;;128.40;2252.80;;;;;;4966743;28;20063;-81
2021/11/13 06:07:53;;;;;;;;;;;128.50;2252.80;;;;;;4966117;28;20023;-87
2021/11/13 06:10:19;;;;;;;135.48;38.33;;;128.50;2252.80;;;;;;4957086;29;19906;-88
2021/11/13 06:12:45;;;;;;;146.98;40.60;;;128.50;2252.80;;;;;;4956896;28;20360;-75
2021/11/13 06:15:12;;;;;;;178.35;41.30;;;128.50;2252.80;;;;;;4959511;28;20034;-81
2021/11/13 06:17:38;;;;;;;139.18;38.88;;;128.40;2252.80;;;;;;4956870;29;20090;-87
2021/11/13 06:20:06;;;;;;;169.43;41.15;;;128.40;2252.80;;;;;;4965933;28;20031;-85
2021/11/13 06:22:32;;;;;;;143.23;36.95;;;128.40;2252.80;;;;;;4968112;28;20019;-87
2021/11/13 06:24:58;;;;;;;155.43;40.90;;;128.40;2252.80;;;;;;4967643;28;20491;-84
2021/11/13 06:27:23;;;;;;;;;;;128.50;2252.80;;;;;;4957115;29;20015;-74
2021/11/13 06:29:50;;;;;;;128.35;36.45;;;128.50;2252.80;;;;;;4956927;29;19906;-81
2021/11/13 06:32:17;;;;;;;153.73;38.53;;;128.60;2252.80;;;;;;4956717;29;20049;-77
2021/11/13 06:34:42;;;;;;;131.35;36.47;;;128.50;2252.80;;;;;;4962801;28;20031;-89
2021/11/13 06:37:09;;;;;;;;;;;128.60;2252.80;;;;;;4969624;28;20022;-83
2021/11/13 06:39:35;;;;;;;154.07;38.03;;;128.40;2252.80;;;;;;4961700;28;20001;-81
2021/11/13 06:42:02;;;;;;;135.07;38.40;;;128.50;2252.80;;;;;;4966998;28;20058;-74
2021/11/13 06:44:28;;;;;;;118.28;35.97;;;128.60;2252.80;;;;;;4956116;29;20027;-85
2021/11/13 06:46:54;;;;;;;;;;;128.50;2252.80;;;;;;4964613;28;20019;-87
2021/11/13 06:49:20;;;;;;;141.45;38.40;;;128.50;2252.80;;;;;;4968837;28;19906;-75
2021/11/13 06:51:46;;;;;;;;;;;128.50;2252.80;;;;;;4956463;29;20119;-86
2021/11/13 06:54:12;;;;;;;112.55;35.60;;;128.60;2252.80;;;;;;4956157;29;20462;-86
2021/11/13 06:56:39;;;;;;;146.02;41.45;;;128.70;2252.80;;;;;;4963985;28;20030;-81
2021/11/13 06:59:05;;;;;;;138.98;42.50;;;128.80;2252.80;;;;;;4950487;28;20031;-85
2021/11/13 07:01:30;;;;;;;;;;;128.70;2252.80;;;;;;4967842;28;20074;-74
2021/11/13 07:03:56;;;;;;;126.70;39.10;;;128.70;2252.80;;;;;;4964668;28;19996;-82
2021/11/13 07:06:22;;;;;;;;;;;128.60;2252.80;;;;;;4947722;28;20038;-83
2021/11/13 07:08:47;;;;;;;117.38;38.78;;;128.60;2252.80;;;;;;4966960;28;19919;-76
2021/11/13 07:11:13;;;;;;;;;;;128.70;2252.80;;;;;;4965561;28;20058;-80
2021/11/13 07:13:39;;;;;;;127.95;41.42;;;128.70;2252.80;;;;;;4963770;28;19917;-81
2021/11/13 07:16:05;;;;;;;;;;;128.80;2252.80;;;;;;4946940;28;20027;-78
2021/11/13 07:18:30;;;;;;;107.22;39.45;;;128.80;2252.80;;;;;;4964901;28;19906;-82
2021/11/13 07:20:57;;;;;;;;;;;128.80;2252.80;;;;;;4964781;28;20030;-80
2021/11/13 07:23:24;;;;;;;81.80;32.55;;;128.70;2252.80;;;;;;4966583;28;19906;-80
2021/11/13 07:25:50;;;;;;;109.18;38.22;;;128.80;2252.80;;;;;;4965479;28;20038;-80
2021/11/13 07:28:18;;;;;;;111.57;40.95;;;128.80;2252.80;;;;;;4966082;28;20019;-83
2021/11/13 07:30:47;;;;;;;100.28;37.85;;;128.70;2252.80;;;;;;4966427;28;20105;-83
2021/11/13 07:33:13;;;;;;;111.78;39.00;;;128.70;2252.80;;;;;;4955468;29;20032;-77
2021/11/13 07:35:42;;;;;;;107.30;37.90;;;128.80;2252.80;;;;;;4966006;28;20027;-77
2021/11/13 07:38:09;;;;;;;100.30;38.35;;;128.80;2252.80;;;;;;4943897;28;20019;-84
2021/11/13 07:40:35;;;;;;;107.68;37.85;;;128.70;2252.80;;;;;;4938163;29;20046;-80
2021/11/13 07:43:00;;;;;;;;;;;128.80;2252.80;;;;;;4938740;29;20110;-81
2021/11/13 07:45:30;;;;;;;123.88;42.42;;;128.80;2252.80;;;;;;4938694;29;19999;-84
2021/11/13 07:47:57;;;;;;;128.80;43.15;;;128.70;2252.80;;;;;;4955254;29;20486;-79
2021/11/13 07:50:23;;;;;;;123.30;45.20;;;128.80;2252.80;;;;;;4965989;28;20027;-81
2021/11/13 07:52:49;;;;;;;126.18;42.40;;;128.90;2252.80;;;;;;4964400;28;20016;-79
2021/11/13 07:55:16;;;;;;;;;;;128.80;2252.80;;;;;;4967721;28;20497;-80
2021/11/13 07:57:42;;;;;;;127.95;47.85;;;128.80;2252.80;;;;;;4966070;28;20309;-74
2021/11/13 08:00:12;;;;;;;121.88;44.03;;;128.80;2252.80;;;;;;4965113;28;20073;-78
2021/11/13 08:02:38;;;;;;;132.32;48.42;;;128.90;2252.80;;;;;;4950448;28;20039;-77
2021/11/13 08:05:03;;;;;;;;;;;128.90;2252.80;;;;;;4952951;28;20042;-79
2021/11/13 08:07:29;;;;;;;120.55;43.63;;;128.80;2252.80;;;;;;4968132;28;19997;-81
2021/11/13 08:09:55;;;;;;;;;;;128.80;2252.80;;;;;;4954532;28;20057;-79
2021/11/13 08:12:20;;;;;;;106.32;37.20;;;128.70;2252.80;;;;;;4959322;28;19914;-84
2021/11/13 08:14:46;;;;;;;;;;;128.60;2252.80;;;;;;4959185;29;20114;-81
2021/11/13 08:17:12;;;;;;;94.68;36.65;;;128.60;2252.80;;;;;;4958847;29;19906;-82
2021/11/13 08:19:38;;;;;;;;;;;128.50;2252.80;;;;;;4942221;29;20031;-84
2021/11/13 08:22:04;;;;;;;170.82;65.10;;;128.50;2252.80;;;;;;4966700;28;19913;-82
2021/11/13 08:24:30;;;;;;;145.98;55.63;;;128.50;2252.80;;;;;;4966300;28;20484;-78
2021/11/13 08:26:55;;;;;;;;;;;128.70;2252.80;;;;;;4961888;28;20019;-83
2021/11/13 08:29:21;;;;;;;144.05;55.97;;;128.60;2252.80;;;;;;4966422;28;19906;-78
2021/11/13 08:31:47;;;;;;;;;;;128.50;2252.80;;;;;;4950305;28;20102;-89
2021/11/13 08:34:12;;;;;;;114.30;42.15;;;128.70;2252.80;;;;;;4952566;28;19918;-84
2021/11/13 08:36:38;;;;;;;;;;;128.80;2252.80;;;;;;4967935;28;20083;-80
2021/11/13 08:39:06;;;;;;;109.28;41.80;;;128.90;2252.80;;;;;;4958219;29;19910;-77
2021/11/13 08:41:32;;;;;;;122.05;43.65;;;128.90;2252.80;;;;;;4966250;28;20026;-75
2021/11/13 08:43:58;;;;;;;133.98;44.83;;;128.80;2252.80;;;;;;4960761;28;20022;-76
2021/11/13 08:46:24;;;;;;;;;;;128.90;2252.80;;;;;;4944061;28;20083;-80
2021/11/13 08:48:50;;;;;;;140.40;47.25;;;153.60;2252.80;;;;;;4963304;28;20361;-75
2021/11/13 08:51:15;;;;;;;;;;;153.60;2252.80;;;;;;4958544;29;20419;-74
2021/11/13 08:53:43;;;;;;;106.45;40.28;;;153.60;2252.80;;;;;;4968416;28;19906;-76
2021/11/13 08:56:09;;;;;;;128.38;45.17;;;128.80;2252.80;;;;;;4964346;28;20139;-82
2021/11/13 08:58:35;;;;;;;;;;;128.90;2252.80;;;;;;4963294;28;20056;-84
2021/11/13 09:01:04;;;;;;;109.18;42.95;;;128.90;2252.80;;;;;;4960553;28;19913;-79
2021/11/13 09:03:37;;;;;;;94.50;38.97;;;128.90;2252.80;;;;;;4964234;28;20019;-82
2021/11/13 09:06:09;;;;;;;87.97;37.33;;;128.90;2252.80;;;;;;4952327;28;20034;-74
2021/11/13 09:08:36;;;;;;;104.60;40.65;;;153.60;2252.80;;;;;;4961414;28;20148;-82
2021/11/13 09:11:02;;;;;;;100.70;37.88;;;153.60;2252.80;;;;;;4968302;28;20035;-81
2021/11/13 09:13:30;;;;;;;103.80;38.47;;;153.70;2252.80;;;;;;4948747;28;20026;-76
2021/11/13 09:15:59;;;;;;;110.60;39.90;;;153.70;2252.80;;;;;;4958110;29;20030;-78
2021/11/13 09:18:25;;;;;;;110.57;39.55;;;153.80;2252.80;;;;;;4966002;28;20015;-83
2021/11/13 09:20:50;;;;;;;;;;;153.80;2252.80;;;;;;4964472;28;20026;-77
2021/11/13 09:23:16;;;;;;;113.63;37.90;;;153.90;2252.80;;;;;;4950609;28;19906;-84
2021/11/13 09:25:43;;;;;;;;;;;153.90;1996.80;;;;;;4968515;28;20051;-82
2021/11/13 09:28:09;;;;;;;95.35;35.92;;;153.70;1894.40;;;;;;4966185;28;19906;-81
2021/11/13 09:30:36;;;;;;;;;;;153.70;2252.80;;;;;;4962253;28;20030;-84
2021/11/13 09:33:03;;;;;;;92.60;33.95;;;153.80;2252.80;;;;;;4961639;28;19944;-83
2021/11/13 09:35:30;;;;;;;91.63;36.60;;;153.90;2252.80;;;;;;4949148;28;20039;-85
2021/11/13 09:37:56;;;;;;;101.70;38.88;;;153.90;2252.80;;;;;;4966655;28;20111;-85
2021/11/13 09:40:23;;;;;;;;;;;153.90;2252.80;;;;;;4943549;28;20050;-78
2021/11/13 09:42:51;;;;;;;85.78;33.80;;;154.00;2252.80;;;;;;4954031;28;19906;-84
2021/11/13 09:45:18;;;;;;;94.43;37.85;;;153.90;2252.80;;;;;;4977214;28;20027;-76
2021/11/13 09:47:46;;;;;;;80.22;34.42;;;154.00;2252.80;;;;;;4977111;28;20033;-84
2021/11/13 09:50:12;;;;;;;93.30;38.35;;;154.10;2252.80;;;;;;4977050;28;20023;-76
2021/11/13 09:52:39;;;;;;;;;;;154.40;2252.80;;;;;;4977527;28;20483;-81
2021/11/13 09:55:07;;;;;;;78.53;32.35;;;154.40;2252.80;;;;;;4959576;28;19914;-80
2021/11/13 09:57:36;;;;;;;86.60;35.63;;;154.50;2252.80;;;;;;4959436;28;20438;-77
2021/11/13 10:00:10;;;;;;;62.97;31.55;;;179.30;2252.80;;;;;;4959697;28;20483;-82
2021/11/13 10:02:35;;;;;;;71.72;32.88;;;179.40;2252.80;;;;;;4976720;28;20023;-83
2021/11/13 10:05:02;;;;;;;;;;;179.40;2252.80;;;;;;4959779;28;20030;-79
2021/11/13 10:07:29;;;;;;;72.50;36.58;;;179.50;2252.80;;;;;;4976917;28;19906;-76
2021/11/13 10:09:55;;;;;;;75.05;33.30;;;180.10;2252.80;;;;;;4976447;28;20479;-78
2021/11/13 10:12:34;;;;;;;;;;;205.00;2252.80;;;;;;4976683;28;20085;-79
2021/11/13 10:15:00;;;;;;;64.10;33.05;;;205.00;2252.80;;;;;;4959088;28;19914;-79
2021/11/13 10:17:25;;;;;;;;;;;205.20;2252.80;;;;;;4976605;28;20387;-76
2021/11/13 10:19:53;;;;;;;62.00;28.95;;;205.30;2252.80;;;;;;4959007;28;19907;-76
2021/11/13 10:22:19;;;;;;;59.22;30.70;;;205.50;2252.80;;;;;;4976323;28;20111;-75
2021/11/13 10:24:51;;;;;;;67.00;31.63;;;205.60;2252.80;;;;;;4975032;28;20027;-78
2021/11/13 10:27:18;;;;;;;63.15;33.85;;;205.70;2252.80;;;;;;4959258;28;20553;-82
2021/11/13 10:29:46;;;;;;;64.80;33.75;;;230.70;2252.80;;;;;;4959388;28;20050;-78
2021/11/13 10:32:16;;;;;;;56.28;31.17;;;230.60;2252.80;;;;;;4959243;28;20058;-79
2021/11/13 10:34:54;;;;;;;51.75;29.23;;;230.70;2252.80;;;;;;4958633;28;20046;-79
2021/11/13 10:37:28;;;;;;;64.35;32.88;;;230.90;2252.80;;;;;;4959169;28;20078;-85
2021/11/13 10:39:59;;;;;;;52.03;26.42;;;231.00;2252.80;;;;;;4959122;28;20487;-76
2021/11/13 10:42:25;;;;;;;49.00;26.50;;;231.10;2252.80;;;;;;4958943;28;20051;-87
2021/11/13 10:45:00;;;;;;;60.45;28.55;;;231.30;2252.80;;;;;;4958696;28;20336;-77
2021/11/13 10:47:39;;;;;;;57.92;31.35;;;231.10;2252.80;;;;;;4959035;28;20077;-83
2021/11/13 10:50:16;;;;;;;54.00;27.90;;;256.00;2252.80;;;;;;4958904;28;20511;-81
2021/11/13 10:52:42;;;;;;;46.38;25.45;;;256.20;2252.80;;;;;;4958369;28;20390;-83
2021/11/13 10:55:17;;;;;;;51.67;26.17;;;231.20;2252.80;;;;;;4958508;28;20030;-76
2021/11/13 10:57:42;;;;;;;53.63;28.65;;;231.20;2252.80;;;;;;4958122;28;20038;-81
2021/11/13 11:00:26;;;;;;;61.13;29.65;;;256.20;2252.80;;;;;;4958246;28;20501;-80
2021/11/13 11:03:06;;;;;;;71.57;34.20;;;256.30;2252.80;;;;;;4975362;28;20095;-77
2021/11/13 11:05:48;;;;;;;65.50;30.75;;;256.60;2252.80;;;;;;4958381;28;20062;-80
2021/11/13 11:08:29;;;;;;;56.97;30.17;;;256.70;2252.80;;;;;;4975244;28;20062;-77
2021/11/13 11:10:55;;;;;;;61.92;31.35;;;256.80;2252.80;;;;;;4958174;28;20093;-78
2021/11/13 11:13:41;;;;;;;63.47;32.55;;;256.60;2252.80;;;;;;4958340;28;20031;-88
2021/11/13 11:16:33;;;;;;;66.28;31.23;;;256.90;2252.80;;;;;;4975902;28;20504;-80
2021/11/13 11:19:06;;;;;;;57.10;29.98;;;256.90;2252.80;;;;;;4975892;28;20027;-75
2021/11/13 11:21:51;;;;;;;62.80;31.33;;;281.70;2278.40;;;;;;4946563;29;20027;-79
2021/11/13 11:24:30;;;;;;;66.60;34.08;;;281.70;2278.40;;;;;;4956003;29;20034;-81
2021/11/13 11:27:20;;;;;;;63.92;33.33;;;281.80;2278.40;;;;;;4935360;29;20035;-78
2021/11/13 11:30:10;;;;;;;59.45;31.98;;;282.00;2278.40;;;;;;4944451;29;20106;-80
2021/11/13 11:32:56;;;;;;;73.88;39.83;;;282.20;2278.40;;;;;;4955764;29;20051;-76
2021/11/13 11:35:29;;;;;;;75.28;38.80;;;282.20;2278.40;;;;;;4937842;29;20121;-76
2021/11/13 11:38:06;;;;;;;57.10;30.13;;;282.20;2278.40;;;;;;4954889;29;20046;-75
2021/11/13 11:40:38;;;;;;;53.22;30.85;;;282.00;2278.40;;;;;;4938206;29;20043;-79
2021/11/13 11:43:05;;;;;;;60.13;31.70;;;282.10;2278.40;;;;;;4936562;29;20062;-75
2021/11/13 11:45:38;;;;;;;57.15;31.50;;;282.10;2278.40;;;;;;4954445;29;20031;-76
2021/11/13 11:48:07;;;;;;;60.33;33.05;;;282.10;2278.40;;;;;;4937473;29;20538;-75
2021/11/13 11:50:34;;;;;;;61.38;32.70;;;282.40;2278.40;;;;;;4937794;29;20093;-75
2021/11/13 11:53:07;;;;;;;65.25;36.83;;;282.40;2278.40;;;;;;4962505;28;20022;-79
2021/11/13 11:55:35;;;;;;;72.35;36.53;;;282.40;2278.40;;;;;;4954500;28;20094;-77
2021/11/13 11:58:11;;;;;;;76.55;38.65;;;282.50;2278.40;;;;;;4964497;28;20395;-78
2021/11/13 12:00:39;;;;;;;49.22;28.10;;;307.20;2304.00;;;;;;4965012;28;20113;-79
2021/11/13 12:03:05;;;;;;;70.22;37.17;;;282.50;2278.40;;;;;;4944238;28;20118;-77
2021/11/13 12:05:34;;;;;;;61.55;32.42;;;307.20;2304.00;;;;;;4960129;28;20020;-77
2021/11/13 12:08:20;;;;;;;65.00;36.58;;;307.20;2304.00;;;;;;4960039;28;20027;-79
2021/11/13 12:10:46;;;;;;;58.90;33.72;;;307.30;2304.00;;;;;;4942582;28;20042;-76
2021/11/13 12:13:15;;;;;;;64.97;36.28;;;307.30;2304.00;;;;;;4954781;29;20034;-86
2021/11/13 12:15:53;;;;;;;73.60;36.38;;;307.40;2304.00;;;;;;4955001;29;20086;-87
2021/11/13 12:18:30;;;;;;;69.85;36.83;;;307.30;2304.00;;;;;;4938058;29;20031;-82
2021/11/13 12:21:02;;;;;;;62.35;33.88;;;307.30;2304.00;;;;;;4955185;29;20023;-78
2021/11/13 12:23:31;;;;;;;63.08;34.25;;;307.30;2304.00;;;;;;4934857;29;20028;-81
2021/11/13 12:26:05;;;;;;;66.38;34.70;;;307.20;2304.00;;;;;;4955329;29;20023;-79